Time;durP1;ratioP1;P1;durP2;ratioP2;P2;SDS_P1;SDS_P2;PMS_P1;PMS_P2;Temp;Humidity;BMP_temperature;BMP_pressure;BME280_temperature;BME280_humidity;BME280_pressure;Samples;Min_cycle;Max_cycle;Signal;HPM_P1;HPM_P2
2024/02/26 00:00:29;;;;;;;0.55;0.55;;;;;;;6.15;67.33;94940.81;29396;244;63009;-53
2024/02/26 00:01:00;;;;;;;0.50;0.50;;;;;;;6.15;67.36;94937.31;29396;202;63009;-53
2024/02/26 00:01:33;;;;;;;0.60;0.60;;;;;;;6.14;67.42;94938.41;29396;197;63009;-53
2024/02/26 00:02:06;;;;;;;0.60;0.60;;;;;;;6.14;67.32;94935.72;29396;312;63004;-67
2024/02/26 00:02:39;;;;;;;0.60;0.60;;;;;;;6.13;67.56;94939.53;29396;222;63009;-53
2024/02/26 00:03:11;;;;;;;0.60;0.60;;;;;;;6.11;67.88;94939.84;29396;226;63004;-52
2024/02/26 00:03:44;;;;;;;0.60;0.60;;;;;;;6.10;67.70;94951.72;29396;239;63009;-53
2024/02/26 00:04:16;;;;;;;0.57;0.57;;;;;;;6.12;68.01;94940.63;29395;325;64008;-53
2024/02/26 00:04:47;;;;;;;0.60;0.60;;;;;;;6.13;67.89;94947.59;29396;207;63009;-52
2024/02/26 00:05:18;;;;;;;0.60;0.60;;;;;;;6.12;68.02;94943.31;29396;199;63005;-53
2024/02/26 00:05:49;;;;;;;0.60;0.60;;;;;;;6.12;67.85;94940.63;29396;218;63009;-53
2024/02/26 00:06:21;;;;;;;0.50;0.50;;;;;;;6.11;67.92;94939.84;29396;223;63005;-54
2024/02/26 00:06:54;;;;;;;0.50;0.50;;;;;;;6.12;68.01;94946.00;29395;311;64009;-70
2024/02/26 00:07:25;;;;;;;0.50;0.50;;;;;;;6.12;67.72;94937.94;29396;214;63012;-52
2024/02/26 00:07:56;;;;;;;0.50;0.50;;;;;;;6.11;67.65;94942.53;29396;344;63009;-53
2024/02/26 00:08:28;;;;;;;0.60;0.60;;;;;;;6.11;67.58;94939.03;29396;256;63005;-53
2024/02/26 00:09:05;;;;;;;0.50;0.50;;;;;;;6.06;67.48;94931.91;29396;221;63009;-53
2024/02/26 00:09:37;;;;;;;0.60;0.60;;;;;;;6.10;67.64;94937.44;29395;327;64009;-53
2024/02/26 00:10:09;;;;;;;0.60;0.60;;;;;;;6.09;67.65;94936.66;29396;238;63009;-53
2024/02/26 00:10:40;;;;;;;0.60;0.60;;;;;;;6.09;67.87;94942.03;29396;223;63011;-53
2024/02/26 00:11:12;;;;;;;0.57;0.57;;;;;;;6.10;67.87;94940.16;29396;223;63009;-52
2024/02/26 00:11:43;;;;;;;0.52;0.52;;;;;;;6.09;67.85;94938.56;29396;209;63004;-53
2024/02/26 00:12:14;;;;;;;0.60;0.60;;;;;;;6.09;67.88;94941.25;29396;238;63009;-53
2024/02/26 00:12:49;;;;;;;0.60;0.60;;;;;;;6.08;68.23;94936.97;29396;204;63005;-53
2024/02/26 00:13:22;;;;;;;0.50;0.50;;;;;;;6.07;68.25;94938.88;29396;197;63009;-53
2024/02/26 00:13:53;;;;;;;0.60;0.60;;;;;;;6.05;68.55;94944.56;29396;211;63005;-53
2024/02/26 00:14:24;;;;;;;0.60;0.60;;;;;;;6.04;68.42;94940.28;29396;229;63009;-52
2024/02/26 00:14:58;;;;;;;0.50;0.50;;;;;;;6.03;68.53;94943.28;29395;267;64009;-54
2024/02/26 00:15:29;;;;;;;0.50;0.50;;;;;;;6.03;68.61;94944.09;29396;210;63023;-52
2024/02/26 00:16:00;;;;;;;0.60;0.60;;;;;;;6.02;68.61;94939.00;29396;203;63005;-53
2024/02/26 00:16:31;;;;;;;0.60;0.60;;;;;;;6.01;68.94;94940.91;29396;209;63009;-53
2024/02/26 00:17:02;;;;;;;0.60;0.60;;;;;;;6.00;69.29;94933.94;29396;302;63004;-52
2024/02/26 00:17:34;;;;;;;0.60;0.60;;;;;;;6.00;68.99;94936.62;29396;281;63009;-54
2024/02/26 00:18:05;;;;;;;0.50;0.50;;;;;;;5.99;68.83;94931.53;29396;196;63004;-53
2024/02/26 00:18:36;;;;;;;0.57;0.57;;;;;;;5.99;69.05;94937.72;29396;287;63009;-52
2024/02/26 00:19:08;;;;;;;0.60;0.60;;;;;;;6.00;68.95;94941.22;29396;213;63004;-53
2024/02/26 00:19:39;;;;;;;0.60;0.60;;;;;;;5.99;68.85;94939.63;29396;336;63008;-52
2024/02/26 00:20:15;;;;;;;0.60;0.60;;;;;;;5.99;68.78;94932.34;29395;223;64009;-53
2024/02/26 00:20:49;;;;;;;0.60;0.60;;;;;;;6.00;69.10;94933.13;29396;267;63009;-53
2024/02/26 00:21:21;;;;;;;0.60;0.60;;;;;;;6.01;68.92;94934.72;29396;202;63005;-53
2024/02/26 00:21:55;;;;;;;0.60;0.60;;;;;;;6.08;68.61;94923.50;29396;260;63018;-53
2024/02/26 00:22:26;;;;;;;0.52;0.52;;;;;;;6.13;68.27;94926.06;29396;210;63004;-53
2024/02/26 00:22:58;;;;;;;0.60;0.60;;;;;;;6.15;67.95;94924.66;29396;208;63009;-53
2024/02/26 00:23:29;;;;;;;0.60;0.60;;;;;;;6.14;67.98;94924.97;29396;251;63005;-69
2024/02/26 00:24:00;;;;;;;0.60;0.60;;;;;;;6.12;67.76;94924.47;29396;218;63009;-55
2024/02/26 00:24:31;;;;;;;0.60;0.60;;;;;;;6.11;67.96;94923.69;29396;218;63004;-70
2024/02/26 00:25:04;;;;;;;0.60;0.60;;;;;;;6.11;67.96;94928.28;29396;269;63009;-53
2024/02/26 00:25:37;;;;;;;0.50;0.50;;;;;;;6.11;67.88;94930.97;29395;210;64009;-53
2024/02/26 00:26:10;;;;;;;0.60;0.60;;;;;;;6.12;68.31;94929.84;29396;211;63009;-52
2024/02/26 00:26:42;;;;;;;0.60;0.60;;;;;;;6.12;68.01;94935.25;29396;229;63004;-53
2024/02/26 00:27:13;;;;;;;0.60;0.60;;;;;;;6.12;67.94;94935.25;29396;229;63008;-52
2024/02/26 00:27:44;;;;;;;0.50;0.50;;;;;;;6.12;68.20;94935.25;29396;211;63005;-53
2024/02/26 00:28:15;;;;;;;0.52;0.52;;;;;;;6.12;68.19;94929.84;29396;210;63009;-53
2024/02/26 00:28:47;;;;;;;0.60;0.60;;;;;;;6.12;68.10;94941.44;29396;203;63016;-53
2024/02/26 00:29:18;;;;;;;0.60;0.60;;;;;;;6.13;67.98;94937.63;29396;199;63009;-53
2024/02/26 00:29:50;;;;;;;0.60;0.60;;;;;;;6.15;67.88;94930.03;29396;212;63005;-54
2024/02/26 00:30:24;;;;;;;0.60;0.60;;;;;;;6.15;67.79;94929.25;29396;221;63009;-53
2024/02/26 00:30:56;;;;;;;0.60;0.60;;;;;;;6.15;67.56;94931.94;29395;340;64009;-53
2024/02/26 00:31:28;;;;;;;0.60;0.60;;;;;;;6.15;67.67;94929.25;29396;232;63017;-53
2024/02/26 00:31:59;;;;;;;0.60;0.60;;;;;;;6.14;67.65;94933.03;29396;216;63004;-53
2024/02/26 00:32:30;;;;;;;0.55;0.55;;;;;;;6.14;67.82;94928.44;29396;208;63009;-53
2024/02/26 00:33:05;;;;;;;0.60;0.60;;;;;;;6.15;67.81;94929.25;29396;199;63004;-53
2024/02/26 00:33:37;;;;;;;0.60;0.60;;;;;;;6.16;67.97;94933.53;29397;237;63009;-53
2024/02/26 00:34:08;;;;;;;0.60;0.60;;;;;;;6.15;67.83;94929.25;29397;225;63004;-53
2024/02/26 00:34:39;;;;;;;0.60;0.60;;;;;;;6.15;67.97;94923.84;29397;266;63008;-53
2024/02/26 00:35:11;;;;;;;0.57;0.57;;;;;;;6.12;67.64;94930.66;29397;218;63005;-52
2024/02/26 00:35:42;;;;;;;0.60;0.60;;;;;;;6.12;67.91;94929.84;29397;216;63009;-53
2024/02/26 00:36:14;;;;;;;0.50;0.50;;;;;;;6.11;67.83;94929.06;29396;206;64009;-52
2024/02/26 00:36:45;;;;;;;0.60;0.60;;;;;;;6.12;67.83;94927.16;29397;250;63009;-53
2024/02/26 00:37:16;;;;;;;0.60;0.60;;;;;;;6.11;67.99;94923.69;29397;377;63005;-53
2024/02/26 00:37:47;;;;;;;0.52;0.52;;;;;;;6.11;68.15;94925.56;29397;218;63009;-53
2024/02/26 00:38:18;;;;;;;0.60;0.60;;;;;;;6.09;68.52;94930.47;29397;262;63004;-53
2024/02/26 00:38:52;;;;;;;0.60;0.60;;;;;;;6.07;68.39;94938.06;29397;242;63009;-53
2024/02/26 00:39:24;;;;;;;0.60;0.60;;;;;;;6.05;68.17;94936.47;29397;291;63004;-53
2024/02/26 00:39:55;;;;;;;0.60;0.60;;;;;;;6.05;68.10;94936.47;29397;244;63009;-67
2024/02/26 00:40:27;;;;;;;0.60;0.60;;;;;;;6.04;68.30;94932.22;29397;212;63004;-54
2024/02/26 00:40:59;;;;;;;0.60;0.60;;;;;;;6.04;68.82;94940.28;29397;211;63008;-52
2024/02/26 00:41:30;;;;;;;0.60;0.60;;;;;;;6.03;68.66;94932.50;29396;215;64009;-69
2024/02/26 00:42:02;;;;;;;0.50;0.50;;;;;;;6.03;68.70;94932.50;29397;214;63009;-53
2024/02/26 00:42:34;;;;;;;0.60;0.60;;;;;;;6.04;68.78;94928.72;29397;258;63005;-53
2024/02/26 00:43:07;;;;;;;0.60;0.60;;;;;;;6.10;68.59;94922.09;29397;199;63009;-53
2024/02/26 00:43:40;;;;;;;0.60;0.60;;;;;;;6.18;68.20;94928.62;29397;230;63005;-55
2024/02/26 00:44:11;;;;;;;0.60;0.60;;;;;;;6.22;67.61;94926.88;29397;305;63009;-53
2024/02/26 00:44:42;;;;;;;0.60;0.60;;;;;;;6.33;67.06;94920.09;29397;236;63005;-53
2024/02/26 00:45:14;;;;;;;0.60;0.60;;;;;;;6.34;66.84;94918.97;29397;268;63009;-53
2024/02/26 00:45:47;;;;;;;0.60;0.60;;;;;;;6.32;66.67;94918.50;29397;196;63004;-53
2024/02/26 00:46:21;;;;;;;0.57;0.57;;;;;;;6.30;66.95;94915.31;29396;255;63009;-52
2024/02/26 00:46:52;;;;;;;0.60;0.60;;;;;;;6.29;66.83;94913.72;29395;208;64009;-53
2024/02/26 00:47:23;;;;;;;0.60;0.60;;;;;;;6.25;67.21;94910.88;29397;197;63009;-53
2024/02/26 00:47:55;;;;;;;0.60;0.60;;;;;;;6.24;67.25;94919.25;29396;314;63004;-71
2024/02/26 00:48:27;;;;;;;0.60;0.60;;;;;;;6.21;67.15;94923.41;29396;281;63008;-53
2024/02/26 00:48:58;;;;;;;0.60;0.60;;;;;;;6.21;67.26;94917.22;29396;241;63004;-53
2024/02/26 00:49:29;;;;;;;0.70;0.70;;;;;;;6.20;67.34;94918.34;29396;197;63009;-53
2024/02/26 00:50:01;;;;;;;0.60;0.60;;;;;;;6.19;67.33;94930.22;29397;367;63005;-68
2024/02/26 00:50:33;;;;;;;0.62;0.62;;;;;;;6.13;67.30;94920.69;29396;198;63009;-53
2024/02/26 00:51:05;;;;;;;0.60;0.60;;;;;;;6.17;67.50;94927.03;29396;219;63005;-53
2024/02/26 00:51:36;;;;;;;0.60;0.60;;;;;;;6.17;67.48;94927.03;29396;224;63009;-53
2024/02/26 00:52:07;;;;;;;0.55;0.55;;;;;;;6.17;67.30;94927.03;29395;205;64009;-53
2024/02/26 00:52:39;;;;;;;0.60;0.60;;;;;;;6.22;67.29;94924.19;29396;228;63009;-53
2024/02/26 00:53:10;;;;;;;1.02;1.02;;;;;;;6.24;66.92;94913.88;29396;208;63005;-53
2024/02/26 00:53:41;;;;;;;0.60;0.60;;;;;;;6.25;66.63;94912.78;29396;203;63009;-53
2024/02/26 00:54:16;;;;;;;0.57;0.57;;;;;;;6.25;66.40;94918.16;29396;209;63004;-53
2024/02/26 00:54:47;;;;;;;0.50;0.50;;;;;;;6.23;66.58;94915.00;29396;204;63017;-53
2024/02/26 00:55:18;;;;;;;0.60;0.60;;;;;;;6.21;66.34;94907.25;29396;278;63004;-54
2024/02/26 00:55:53;;;;;;;0.60;0.60;;;;;;;6.19;66.77;94919.44;29396;204;63008;-54
2024/02/26 00:56:24;;;;;;;0.60;0.60;;;;;;;6.18;66.77;94915.16;29396;223;63004;-53
2024/02/26 00:56:56;;;;;;;29.92;28.15;;;;;;;6.17;66.84;94921.66;29386;197;65025;-53
2024/02/26 00:57:28;;;;;;;0.55;0.55;;;;;;;6.16;66.68;94915.47;29395;216;64025;-53
2024/02/26 00:58:00;;;;;;;0.50;0.50;;;;;;;6.17;66.68;94917.06;29396;267;63009;-53
2024/02/26 00:58:31;;;;;;;0.60;0.60;;;;;;;6.18;66.48;94917.84;29396;265;63012;-53
2024/02/26 00:59:02;;;;;;;0.60;0.60;;;;;;;6.19;66.25;94914.03;29396;208;63009;-53
2024/02/26 00:59:35;;;;;;;0.60;0.60;;;;;;;6.17;66.20;94918.94;29396;240;63005;-53
2024/02/26 01:00:08;;;;;;;0.60;0.60;;;;;;;6.18;66.24;94917.84;29396;257;63009;-53
2024/02/26 01:00:40;;;;;;;0.50;0.50;;;;;;;6.17;66.24;94913.56;29396;222;63010;-53
2024/02/26 01:01:11;;;;;;;0.60;0.60;;;;;;;6.15;66.41;94905.81;29396;313;63009;-52
2024/02/26 01:01:42;;;;;;;0.52;0.52;;;;;;;6.14;66.31;94906.91;29396;216;63004;-53
2024/02/26 01:02:13;;;;;;;0.60;0.60;;;;;;;6.11;66.37;94904.03;29396;272;63009;-53
2024/02/26 01:02:47;;;;;;;0.60;0.60;;;;;;;6.10;66.63;94910.53;29395;243;64009;-53
2024/02/26 01:03:18;;;;;;;0.70;0.70;;;;;;;6.13;66.52;94916.09;29396;218;63007;-67
2024/02/26 01:03:50;;;;;;;0.60;0.60;;;;;;;6.15;66.58;94910.37;29396;206;63004;-53
2024/02/26 01:04:21;;;;;;;0.60;0.60;;;;;;;6.15;66.68;94907.69;29396;259;63009;-52
2024/02/26 01:04:52;;;;;;;0.60;0.60;;;;;;;6.14;66.61;94906.91;29396;202;63005;-53
2024/02/26 01:05:23;;;;;;;0.50;0.50;;;;;;;6.12;66.78;94908.31;29396;202;63013;-52
2024/02/26 01:05:54;;;;;;;0.60;0.60;;;;;;;6.10;66.93;94911.31;29396;334;63005;-70
2024/02/26 01:06:26;;;;;;;0.50;0.50;;;;;;;6.10;66.92;94921.31;29396;226;63009;-53
2024/02/26 01:06:57;;;;;;;0.50;0.50;;;;;;;6.09;67.11;94914.31;29396;226;63005;-52
2024/02/26 01:07:28;;;;;;;0.50;0.50;;;;;;;6.08;67.13;94923.50;29396;286;63009;-53
2024/02/26 01:07:59;;;;;;;0.50;0.50;;;;;;;6.06;67.15;94910.34;29395;254;64009;-53
2024/02/26 01:08:31;;;;;;;0.60;0.60;;;;;;;6.05;67.62;94914.94;29396;287;63009;-53
2024/02/26 01:09:03;;;;;;;0.60;0.60;;;;;;;6.03;67.26;94911.78;29396;197;63004;-53
2024/02/26 01:09:38;;;;;;;0.60;0.60;;;;;;;6.00;67.84;94911.59;29395;344;64013;-53
2024/02/26 01:10:11;;;;;;;0.55;0.55;;;;;;;6.01;67.58;94916.66;29396;275;63004;-53
2024/02/26 01:10:42;;;;;;;0.50;0.50;;;;;;;6.00;67.98;94925.06;29396;202;63009;-53
2024/02/26 01:11:13;;;;;;;0.60;0.60;;;;;;;5.99;67.92;94934.25;29396;214;63004;-53
2024/02/26 01:11:44;;;;;;;0.60;0.60;;;;;;;5.99;68.30;94934.25;29396;244;63009;-54
2024/02/26 01:12:16;;;;;;;0.60;0.60;;;;;;;5.99;68.42;94926.97;29396;283;63005;-53
2024/02/26 01:12:47;;;;;;;0.60;0.60;;;;;;;5.99;68.19;94926.16;29396;274;63009;-54
2024/02/26 01:13:19;;;;;;;0.60;0.60;;;;;;;6.03;67.48;94917.16;29396;207;63005;-53
2024/02/26 01:13:56;;;;;;;0.60;0.60;;;;;;;6.07;66.72;94908.47;29396;271;63005;-52
2024/02/26 01:14:27;;;;;;;0.55;0.55;;;;;;;6.08;66.48;94907.34;29396;255;63005;-53
2024/02/26 01:14:58;;;;;;;0.60;0.60;;;;;;;6.09;66.44;94903.56;29395;209;64013;-53
2024/02/26 01:15:30;;;;;;;0.60;0.60;;;;;;;6.09;66.35;94898.16;29396;206;63005;-55
2024/02/26 01:16:02;;;;;;;0.60;0.60;;;;;;;6.09;66.20;94903.56;29396;294;63009;-71
2024/02/26 01:16:33;;;;;;;0.60;0.60;;;;;;;6.10;65.65;94894.37;29396;199;63004;-52
2024/02/26 01:17:04;;;;;;;0.60;0.60;;;;;;;6.10;65.63;94889.00;29396;218;63004;-53
2024/02/26 01:17:35;;;;;;;0.50;0.50;;;;;;;6.09;65.74;94893.59;29396;211;63004;-53
2024/02/26 01:18:07;;;;;;;0.50;0.50;;;;;;;6.10;66.00;94895.16;29396;255;63009;-53
2024/02/26 01:18:38;;;;;;;0.57;0.57;;;;;;;6.11;65.97;94895.97;29396;303;63004;-52
2024/02/26 01:19:10;;;;;;;0.60;0.60;;;;;;;6.12;65.71;94897.56;29396;222;63008;-53
2024/02/26 01:19:41;;;;;;;0.60;0.60;;;;;;;6.13;65.69;94899.12;29396;202;63005;-68
2024/02/26 01:20:15;;;;;;;0.60;0.60;;;;;;;6.15;65.66;94899.63;29395;276;64014;-54
2024/02/26 01:20:46;;;;;;;0.60;0.60;;;;;;;6.16;65.54;94893.13;29396;258;63007;-53
2024/02/26 01:21:17;;;;;;;0.55;0.55;;;;;;;6.16;65.42;94901.22;29396;210;63009;-53
2024/02/26 01:21:49;;;;;;;0.60;0.60;;;;;;;6.17;65.52;94900.09;29396;334;63005;-53
2024/02/26 01:22:20;;;;;;;0.60;0.60;;;;;;;6.17;65.42;94895.50;29396;226;63009;-53
2024/02/26 01:22:51;;;;;;;0.60;0.60;;;;;;;6.20;65.19;94899.47;29396;202;63004;-53
2024/02/26 01:23:23;;;;;;;0.50;0.50;;;;;;;6.20;65.00;94891.41;29396;345;63009;-53
2024/02/26 01:23:57;;;;;;;0.60;0.60;;;;;;;6.20;65.32;94888.72;29396;207;63004;-53
2024/02/26 01:24:29;;;;;;;0.50;0.50;;;;;;;6.20;65.35;94899.47;29396;210;63009;-53
2024/02/26 01:25:01;;;;;;;0.60;0.60;;;;;;;6.21;65.22;94895.69;29396;263;63004;-53
2024/02/26 01:25:32;;;;;;;0.60;0.60;;;;;;;6.22;65.01;94900.75;29395;313;64013;-53
2024/02/26 01:26:04;;;;;;;0.60;0.60;;;;;;;6.23;64.72;94898.84;29396;274;63004;-53
2024/02/26 01:26:36;;;;;;;0.60;0.60;;;;;;;6.25;64.92;94891.22;29396;196;63008;-53
2024/02/26 01:27:08;;;;;;;0.60;0.60;;;;;;;6.24;64.83;94884.25;29396;300;63005;-69
2024/02/26 01:27:42;;;;;;;0.50;0.50;;;;;;;6.25;64.85;94886.63;29396;285;63009;-53
2024/02/26 01:28:14;;;;;;;0.60;0.60;;;;;;;6.27;63.93;94886.31;29396;203;63005;-52
2024/02/26 01:28:45;;;;;;;0.50;0.50;;;;;;;6.25;63.70;94883.16;29396;275;63009;-53
2024/02/26 01:29:17;;;;;;;0.60;0.60;;;;;;;6.25;63.80;94886.63;29396;288;63005;-53
2024/02/26 01:29:48;;;;;;;0.50;0.50;;;;;;;6.26;63.58;94879.34;29396;241;63009;-53
2024/02/26 01:30:20;;;;;;;0.50;0.50;;;;;;;6.26;63.77;94882.84;29396;202;63004;-52
2024/02/26 01:30:51;;;;;;;0.50;0.50;;;;;;;6.25;63.42;94888.53;29395;208;64013;-53
2024/02/26 01:31:22;;;;;;;0.60;0.60;;;;;;;6.26;63.36;94888.22;29395;207;64004;-53
2024/02/26 01:31:54;;;;;;;0.60;0.60;;;;;;;6.27;63.64;94883.62;29396;207;63009;-53
2024/02/26 01:32:26;;;;;;;0.50;0.50;;;;;;;6.27;63.90;94889.81;29396;215;63004;-53
2024/02/26 01:32:57;;;;;;;0.50;0.50;;;;;;;6.26;63.87;94888.22;29396;234;63008;-53
2024/02/26 01:33:29;;;;;;;0.60;0.60;;;;;;;6.26;63.82;94887.44;29396;196;63011;-53
2024/02/26 01:34:03;;;;;;;0.60;0.60;;;;;;;6.28;64.08;94890.59;29396;289;63009;-53
2024/02/26 01:34:36;;;;;;;0.55;0.55;;;;;;;6.28;63.74;94887.91;29395;246;63005;-53
2024/02/26 01:35:10;;;;;;;0.52;0.52;;;;;;;6.27;63.58;94889.00;29396;213;63009;-53
2024/02/26 01:35:43;;;;;;;0.50;0.50;;;;;;;6.26;63.59;94893.59;29396;216;63005;-52
2024/02/26 01:36:14;;;;;;;0.50;0.50;;;;;;;6.23;64.10;94890.78;29395;216;64013;-53
2024/02/26 01:36:46;;;;;;;0.55;0.55;;;;;;;6.23;64.14;94893.47;29397;202;63005;-52
2024/02/26 01:37:17;;;;;;;0.50;0.50;;;;;;;6.21;64.30;94901.84;29397;243;63009;-54
2024/02/26 01:37:48;;;;;;;0.60;0.60;;;;;;;6.20;64.40;94899.47;29397;248;63004;-52
2024/02/26 01:38:19;;;;;;;0.60;0.60;;;;;;;6.19;64.46;94898.69;29397;246;63020;-53
2024/02/26 01:38:51;;;;;;;0.60;0.60;;;;;;;6.18;64.44;94901.69;29397;211;63004;-53
2024/02/26 01:39:22;;;;;;;0.60;0.60;;;;;;;6.17;64.69;94900.09;29397;238;63009;-53
2024/02/26 01:39:53;;;;;;;0.60;0.60;;;;;;;6.17;64.59;94908.19;29395;237;63004;-53
2024/02/26 01:40:27;;;;;;;0.60;0.60;;;;;;;6.16;64.90;94906.59;29395;230;63008;-53
2024/02/26 01:40:59;;;;;;;0.60;0.60;;;;;;;6.15;65.10;94918.47;29395;258;63004;-53
2024/02/26 01:41:30;;;;;;;0.60;0.60;;;;;;;6.14;65.45;94922.25;29394;213;64014;-52
2024/02/26 01:42:02;;;;;;;0.55;0.55;;;;;;;6.12;66.04;94925.28;29395;265;63005;-53
2024/02/26 01:42:34;;;;;;;0.60;0.60;;;;;;;6.11;66.30;94930.97;29395;243;63009;-53
2024/02/26 01:43:05;;;;;;;0.57;0.57;;;;;;;6.10;66.01;94932.06;29395;203;63005;-53
2024/02/26 01:43:36;;;;;;;0.60;0.60;;;;;;;6.07;66.33;94933.47;29395;215;63009;-53
2024/02/26 01:44:08;;;;;;;0.50;0.50;;;;;;;6.05;66.01;94931.09;29395;217;63005;-53
2024/02/26 01:44:39;;;;;;;0.50;0.50;;;;;;;6.05;66.15;94931.09;29395;203;63009;-53
2024/02/26 01:45:20;;;;;;;0.60;0.60;;;;;;;6.05;65.97;94930.31;29395;214;63005;-53
2024/02/26 01:45:52;;;;;;;0.60;0.60;;;;;;;6.07;65.67;94930.78;29417;210;63009;-53
2024/02/26 01:46:23;;;;;;;0.60;0.60;;;;;;;6.11;65.17;94928.28;29394;196;63000;-53
2024/02/26 01:46:55;;;;;;;0.60;0.60;;;;;;;6.16;64.63;94928.12;29393;350;64013;-52
2024/02/26 01:47:27;;;;;;;0.50;0.50;;;;;;;6.18;64.23;94928.62;29395;204;63004;-53
2024/02/26 01:48:00;;;;;;;0.60;0.60;;;;;;;6.16;64.61;94920.06;29395;226;63008;-52
2024/02/26 01:48:31;;;;;;;0.60;0.60;;;;;;;6.16;64.44;94920.84;29395;275;63004;-53
2024/02/26 01:49:03;;;;;;;0.55;0.55;;;;;;;6.18;64.41;94923.22;29395;199;63009;-54
2024/02/26 01:49:35;;;;;;;0.60;0.60;;;;;;;6.18;64.43;94928.62;29395;213;63005;-53
2024/02/26 01:50:08;;;;;;;0.60;0.60;;;;;;;6.18;64.55;94924.03;29395;198;63009;-52
2024/02/26 01:50:43;;;;;;;0.60;0.60;;;;;;;6.18;64.67;94928.62;29395;202;63005;-54
2024/02/26 01:51:15;;;;;;;0.50;0.50;;;;;;;6.18;64.98;94925.94;29395;235;63009;-53
2024/02/26 01:51:47;;;;;;;0.50;0.50;;;;;;;6.17;64.86;94929.72;29395;297;63005;-53
2024/02/26 01:52:19;;;;;;;0.55;0.55;;;;;;;6.16;64.91;94930.81;29393;302;64013;-54
2024/02/26 01:52:52;;;;;;;0.50;0.50;;;;;;;6.16;65.10;94926.25;29395;225;63004;-53
2024/02/26 01:53:24;;;;;;;0.60;0.60;;;;;;;6.18;65.40;94932.09;29394;241;64009;-52
2024/02/26 01:53:59;;;;;;;0.60;0.60;;;;;;;6.19;65.75;94935.59;29395;222;63004;-53
2024/02/26 01:54:32;;;;;;;0.60;0.60;;;;;;;6.15;65.97;94940.81;29395;307;63009;-52
2024/02/26 01:55:04;;;;;;;0.50;0.50;;;;;;;6.14;65.98;94941.13;29395;197;63004;-53
2024/02/26 01:55:36;;;;;;;0.60;0.60;;;;;;;6.12;65.77;94941.44;29395;287;63008;-53
2024/02/26 01:56:08;;;;;;;0.60;0.60;;;;;;;6.10;66.16;94935.56;29395;387;63012;-52
2024/02/26 01:56:41;;;;;;;0.60;0.60;;;;;;;6.09;66.13;94938.56;29395;209;63009;-52
2024/02/26 01:57:14;;;;;;;0.50;0.50;;;;;;;6.08;66.74;94943.16;29395;216;63005;-53
2024/02/26 01:57:48;;;;;;;0.60;0.60;;;;;;;6.07;66.67;94943.47;29393;244;64014;-53
2024/02/26 01:58:20;;;;;;;0.60;0.60;;;;;;;6.04;66.47;94944.88;29395;228;63005;-54
2024/02/26 01:58:51;;;;;;;0.60;0.60;;;;;;;6.03;67.00;94949.47;29395;223;63009;-54
2024/02/26 01:59:23;;;;;;;0.60;0.60;;;;;;;6.01;67.05;94948.97;29395;322;63005;-53
2024/02/26 01:59:56;;;;;;;0.60;0.60;;;;;;;5.99;67.56;94948.50;29395;205;63009;-53
2024/02/26 02:00:27;;;;;;;0.50;0.50;;;;;;;5.98;67.58;94957.66;29395;209;63004;-69
2024/02/26 02:01:01;;;;;;;0.60;0.60;;;;;;;5.97;67.38;94950.69;29395;221;63009;-53
2024/02/26 02:01:34;;;;;;;0.60;0.60;;;;;;;5.96;67.73;94949.13;29395;263;63004;-52
2024/02/26 02:02:09;;;;;;;0.50;0.50;;;;;;;5.95;67.88;94952.91;29395;209;63014;-53
2024/02/26 02:02:41;;;;;;;0.60;0.60;;;;;;;5.93;68.21;94960.50;29395;212;63004;-52
2024/02/26 02:03:13;;;;;;;0.57;0.57;;;;;;;5.93;68.24;94965.09;29393;223;64013;-53
2024/02/26 02:03:46;;;;;;;0.60;0.60;;;;;;;5.92;68.17;94958.13;29395;243;63005;-53
2024/02/26 02:04:18;;;;;;;0.60;0.60;;;;;;;5.91;68.13;94967.28;29395;197;63009;-53
2024/02/26 02:04:49;;;;;;;0.60;0.60;;;;;;;5.91;68.27;94965.41;29395;211;63005;-53
2024/02/26 02:05:21;;;;;;;0.60;0.60;;;;;;;5.93;68.25;94968.56;29395;224;63009;-53
2024/02/26 02:05:53;;;;;;;0.60;0.60;;;;;;;5.92;68.29;94969.69;29395;205;63005;-53
2024/02/26 02:06:28;;;;;;;0.50;0.50;;;;;;;5.92;68.03;94966.97;29395;208;63009;-53
2024/02/26 02:07:01;;;;;;;0.60;0.60;;;;;;;5.94;68.23;94961.28;29395;208;63005;-69
2024/02/26 02:07:32;;;;;;;0.60;0.60;;;;;;;5.95;67.67;94971.75;29395;209;63009;-53
2024/02/26 02:08:05;;;;;;;0.60;0.60;;;;;;;5.94;67.79;94967.47;29395;202;63004;-53
2024/02/26 02:08:37;;;;;;;0.50;0.50;;;;;;;5.93;67.70;94965.88;29393;307;64013;-52
2024/02/26 02:09:09;;;;;;;0.50;0.50;;;;;;;5.94;67.51;94972.84;29395;203;63004;-53
2024/02/26 02:09:40;;;;;;;0.60;0.60;;;;;;;5.96;67.39;94970.66;29395;202;63009;-53
2024/02/26 02:10:12;;;;;;;0.60;0.60;;;;;;;5.97;67.57;94966.84;29395;266;63014;-52
2024/02/26 02:10:45;;;;;;;0.60;0.60;;;;;;;5.97;67.32;94974.94;29395;219;63008;-53
2024/02/26 02:11:17;;;;;;;0.50;0.50;;;;;;;5.98;67.55;94973.03;29395;221;63005;-53
2024/02/26 02:11:49;;;;;;;0.60;0.60;;;;;;;6.00;67.43;94976.22;29395;210;63009;-53
2024/02/26 02:12:21;;;;;;;0.60;0.60;;;;;;;6.02;67.42;94969.41;29395;278;63005;-53
2024/02/26 02:12:53;;;;;;;0.60;0.60;;;;;;;6.04;67.21;94971.78;29395;235;63009;-53
2024/02/26 02:13:24;;;;;;;0.60;0.60;;;;;;;6.06;67.32;94974.97;29395;219;63010;-53
2024/02/26 02:13:56;;;;;;;0.60;0.60;;;;;;;6.09;67.12;94968.97;29393;260;64013;-52
2024/02/26 02:14:27;;;;;;;0.50;0.50;;;;;;;6.10;67.01;94970.56;29395;216;63005;-53
2024/02/26 02:14:59;;;;;;;0.50;0.50;;;;;;;6.08;66.73;94971.97;29395;198;63009;-53
2024/02/26 02:15:30;;;;;;;0.60;0.60;;;;;;;6.04;66.82;94967.22;29395;218;63004;-51
2024/02/26 02:16:02;;;;;;;0.60;0.60;;;;;;;6.00;66.68;94965.44;29395;262;63009;-53
2024/02/26 02:16:33;;;;;;;0.60;0.60;;;;;;;5.97;66.47;94966.06;29395;240;63004;-53
2024/02/26 02:17:05;;;;;;;0.60;0.60;;;;;;;5.95;66.52;94974.44;29395;217;63009;-52
2024/02/26 02:17:40;;;;;;;0.60;0.60;;;;;;;5.98;66.35;94968.44;29395;210;63004;-53
2024/02/26 02:18:11;;;;;;;0.60;0.60;;;;;;;5.98;66.53;94968.44;29395;280;63008;-68
2024/02/26 02:18:42;;;;;;;0.50;0.50;;;;;;;5.99;66.34;94967.34;29395;208;63004;-53
2024/02/26 02:19:14;;;;;;;0.50;0.50;;;;;;;6.00;66.63;94965.44;29393;239;64014;-53
2024/02/26 02:19:45;;;;;;;0.60;0.60;;;;;;;6.01;65.95;94967.81;29395;268;63005;-54
2024/02/26 02:20:18;;;;;;;0.60;0.60;;;;;;;6.04;65.42;94958.34;29395;306;63009;-53
2024/02/26 02:20:53;;;;;;;0.60;0.60;;;;;;;6.07;65.10;94960.41;29395;240;63005;-53
2024/02/26 02:21:24;;;;;;;0.60;0.60;;;;;;;6.07;64.42;94957.72;29395;197;63009;-53
2024/02/26 02:21:56;;;;;;;0.60;0.60;;;;;;;6.08;64.82;94955.81;29395;245;63012;-53
2024/02/26 02:22:28;;;;;;;0.60;0.60;;;;;;;6.06;64.26;94953.44;29395;210;63009;-52
2024/02/26 02:22:59;;;;;;;0.55;0.55;;;;;;;6.05;64.67;94952.63;29395;226;63004;-53
2024/02/26 02:23:31;;;;;;;0.50;0.50;;;;;;;6.04;64.58;94955.66;29395;278;63009;-53
2024/02/26 02:24:02;;;;;;;0.55;0.55;;;;;;;6.03;64.85;94954.84;29395;221;63004;-52
2024/02/26 02:24:33;;;;;;;0.60;0.60;;;;;;;6.02;64.62;94953.25;29393;241;64013;-52
2024/02/26 02:25:06;;;;;;;0.60;0.60;;;;;;;6.02;64.53;94957.84;29395;226;63004;-52
2024/02/26 02:25:37;;;;;;;0.60;0.60;;;;;;;6.01;64.53;94962.44;29395;231;63009;-53
2024/02/26 02:26:09;;;;;;;0.60;0.60;;;;;;;6.02;64.66;94953.25;29395;211;63005;-53
2024/02/26 02:26:41;;;;;;;0.50;0.50;;;;;;;6.03;64.59;94959.44;29395;210;63009;-68
2024/02/26 02:27:12;;;;;;;0.60;0.60;;;;;;;6.03;64.31;94957.53;29395;243;63005;-53
2024/02/26 02:27:44;;;;;;;0.50;0.50;;;;;;;6.03;64.48;94959.44;29395;234;63009;-53
2024/02/26 02:28:15;;;;;;;0.50;0.50;;;;;;;6.03;64.23;94957.53;29395;251;63005;-53
2024/02/26 02:28:48;;;;;;;0.50;0.50;;;;;;;6.04;64.33;94961.03;29395;280;63009;-53
2024/02/26 02:29:23;;;;;;;0.52;0.52;;;;;;;6.04;64.49;94955.66;29395;202;63005;-69
2024/02/26 02:29:55;;;;;;;0.60;0.60;;;;;;;6.05;64.26;94958.03;29394;218;64013;-68
2024/02/26 02:30:30;;;;;;;0.55;0.55;;;;;;;6.07;63.76;94954.22;29395;218;63004;-71
2024/02/26 02:31:01;;;;;;;0.60;0.60;;;;;;;6.08;63.87;94951.22;29395;251;63009;-53
2024/02/26 02:31:34;;;;;;;0.50;0.50;;;;;;;6.09;63.91;94957.41;29395;220;63004;-53
2024/02/26 02:32:09;;;;;;;0.60;0.60;;;;;;;6.11;63.09;94960.59;29395;206;63009;-53
2024/02/26 02:32:43;;;;;;;0.60;0.60;;;;;;;6.16;62.48;94957.75;29395;210;63004;-53
2024/02/26 02:33:16;;;;;;;0.60;0.60;;;;;;;6.18;62.27;94944.78;29395;231;63009;-52
2024/02/26 02:33:47;;;;;;;0.57;0.57;;;;;;;6.17;62.06;94943.97;29395;210;63005;-70
2024/02/26 02:34:18;;;;;;;0.60;0.60;;;;;;;6.18;62.49;94955.53;29395;226;63009;-53
2024/02/26 02:34:49;;;;;;;0.55;0.55;;;;;;;6.16;62.37;94946.97;29395;227;63011;-53